aviador You're here:

CYBQ Decoded Metar

in
Report Time2017-11-23 03:00:00
UTC Time2017-11-23 03:30:53
Flight Rules vfr VFR
Wind310° at 09 Gusting to 15 kt
W.Decomp.*RWY 25: 4.5 kt HW 7.8 kt RCW
W.Rank310° ranks 2
Current wind is above 310° avg. (7.2)
Visibility9999 m
Phenomena:N/A
Clouds:N/A
Expected CloudBase > 1,200 ft AGL from Temp-Dew spread
CeilingNone
Temp-19°C
Dew Point-22°C (77% RH)
AAT-25.9°C
QNH1007 hPa
Raw Report
METAR CYBQ 230300Z AUTO 31009G15KT 9SM CLR M19/M22 A2973 RMK SLP101=

Extra information for CYBQ:More info

Social comments